Time;durP1;ratioP1;P1;durP2;ratioP2;P2;SDS_P1;SDS_P2;PMS_P1;PMS_P2;Temp;Humidity;BMP_temperature;BMP_pressure;BME280_temperature;BME280_humidity;BME280_pressure;Samples;Min_cycle;Max_cycle;Signal;HPM_P1;HPM_P2
2023/05/15 00:00:09;;;;;;;45.50;23.58;;;11.00;99.90;;;;;;5093484;28;20044;-82
2023/05/15 00:02:36;;;;;;;42.88;25.00;;;11.00;99.90;;;;;;5093500;28;20106;-82
2023/05/15 00:05:06;;;;;;;42.28;24.90;;;11.00;99.90;;;;;;5093851;28;20503;-81
2023/05/15 00:07:32;;;;;;;45.50;25.35;;;11.00;99.90;;;;;;5093649;28;20044;-82
2023/05/15 00:09:58;;;;;;;42.10;24.45;;;11.10;99.90;;;;;;5092291;28;20433;-82
2023/05/15 00:12:24;;;;;;;43.10;24.63;;;11.00;99.90;;;;;;5093781;28;20476;-82
2023/05/15 00:14:50;;;;;;;43.15;23.35;;;11.00;99.90;;;;;;5092143;28;20056;-82
2023/05/15 00:17:15;;;;;;;39.15;23.30;;;11.10;99.90;;;;;;5092148;28;20498;-82
2023/05/15 00:19:41;;;;;;;40.30;22.60;;;11.10;99.90;;;;;;5093497;28;20051;-82
2023/05/15 00:22:07;;;;;;;39.17;22.23;;;11.10;99.90;;;;;;5093524;28;20075;-82
2023/05/15 00:24:33;;;;;;;40.97;23.02;;;11.00;99.90;;;;;;5093428;28;20067;-82
2023/05/15 00:26:59;;;;;;;40.95;22.63;;;10.90;99.90;;;;;;5093087;28;20412;-81
2023/05/15 00:29:25;;;;;;;38.70;23.15;;;10.90;99.90;;;;;;5093214;28;20059;-82
2023/05/15 00:31:51;;;;;;;37.63;23.33;;;10.90;99.90;;;;;;5093214;28;20040;-82
2023/05/15 00:34:16;;;;;;;40.25;23.77;;;10.90;99.90;;;;;;5093628;28;20044;-82
2023/05/15 00:36:43;;;;;;;42.65;25.25;;;10.80;99.90;;;;;;5093374;28;20044;-82
2023/05/15 00:39:08;;;;;;;41.08;23.50;;;10.70;99.90;;;;;;5093281;28;20080;-82
2023/05/15 00:41:35;;;;;;;42.13;24.50;;;10.70;99.90;;;;;;5093341;28;20080;-82
2023/05/15 00:44:02;;;;;;;41.22;25.02;;;10.70;99.90;;;;;;5093092;28;20058;-81
2023/05/15 00:46:30;;;;;;;40.80;24.17;;;10.60;99.90;;;;;;5093192;28;20059;-81
2023/05/15 00:48:57;;;;;;;38.20;23.33;;;10.70;99.90;;;;;;5093307;28;20044;-82
2023/05/15 00:51:23;;;;;;;44.25;25.65;;;10.60;99.90;;;;;;5093221;28;20036;-82
2023/05/15 00:53:51;;;;;;;45.45;24.55;;;10.60;99.90;;;;;;5092180;28;20536;-82
2023/05/15 00:56:17;;;;;;;40.65;24.00;;;10.60;99.90;;;;;;5092998;28;20048;-82
2023/05/15 00:58:45;;;;;;;38.35;23.25;;;10.60;99.90;;;;;;5092998;28;20044;-82
2023/05/15 01:01:12;;;;;;;39.90;24.35;;;10.60;99.90;;;;;;5093325;28;20528;-82
2023/05/15 01:03:38;;;;;;;42.45;25.15;;;10.50;99.90;;;;;;5093080;28;20048;-82
2023/05/15 01:06:04;;;;;;;44.63;25.15;;;10.60;99.90;;;;;;5095174;28;20086;-81
2023/05/15 01:08:45;;;;;;;45.17;25.15;;;10.60;99.90;;;;;;5096699;28;20036;-82
2023/05/15 01:11:13;;;;;;;46.75;25.75;;;10.60;99.90;;;;;;5096612;28;20080;-81
2023/05/15 01:13:39;;;;;;;42.90;26.27;;;10.60;99.90;;;;;;5096669;28;20032;-82
2023/05/15 01:16:05;;;;;;;37.67;21.92;;;10.50;99.90;;;;;;5096562;28;20392;-82
2023/05/15 01:18:31;;;;;;;40.35;23.13;;;10.60;99.90;;;;;;5096608;28;20078;-82
2023/05/15 01:21:00;;;;;;;39.30;22.10;;;10.60;99.90;;;;;;5096479;28;20068;-82
2023/05/15 01:23:55;;;;;;;36.42;22.95;;;10.60;99.90;;;;;;5096339;28;20055;-82
2023/05/15 01:26:53;;;;;;;37.53;21.23;;;10.50;99.90;;;;;;5023794;28;20140;-81
2023/05/15 01:29:31;;;;;;;31.80;18.88;;;10.50;99.90;;;;;;5096207;28;20109;-82
2023/05/15 01:32:06;;;;;;;37.45;22.13;;;10.40;99.90;;;;;;5095131;28;20052;-82
2023/05/15 01:34:40;;;;;;;40.80;23.27;;;10.40;99.90;;;;;;5096325;28;20119;-81
2023/05/15 01:37:10;;;;;;;40.63;24.23;;;10.30;99.90;;;;;;5096148;28;20055;-82
2023/05/15 01:39:40;;;;;;;37.38;21.50;;;10.30;99.90;;;;;;5096079;28;20097;-82
2023/05/15 01:42:09;;;;;;;38.20;21.05;;;10.30;99.90;;;;;;5096162;28;20112;-81
2023/05/15 01:44:37;;;;;;;36.60;19.98;;;10.30;99.90;;;;;;5095959;28;20088;-81
2023/05/15 01:47:11;;;;;;;28.60;17.55;;;10.30;99.90;;;;;;5095884;28;20105;-81
2023/05/15 01:49:38;;;;;;;27.05;15.63;;;10.30;99.90;;;;;;5096087;28;20084;-82
2023/05/15 01:52:17;;;;;;;24.80;15.60;;;10.30;99.90;;;;;;5095922;28;20040;-82
2023/05/15 01:54:44;;;;;;;24.50;15.40;;;10.30;99.90;;;;;;5096111;28;20071;-82
2023/05/15 01:57:11;;;;;;;29.35;15.88;;;10.30;99.90;;;;;;5096082;28;20056;-82
2023/05/15 01:59:38;;;;;;;26.25;15.50;;;10.20;99.90;;;;;;5095917;28;20076;-82
2023/05/15 02:02:04;;;;;;;25.02;15.13;;;10.20;99.90;;;;;;5095940;28;20048;-82
2023/05/15 02:04:32;;;;;;;25.23;15.30;;;10.20;99.90;;;;;;5095716;28;20039;-82
2023/05/15 02:07:00;;;;;;;30.67;17.92;;;10.20;99.90;;;;;;5095603;28;20048;-82
2023/05/15 02:09:27;;;;;;;32.50;17.73;;;10.10;99.90;;;;;;5095323;28;20526;-81
2023/05/15 02:11:53;;;;;;;27.90;16.98;;;10.10;99.90;;;;;;5095379;28;20503;-81
2023/05/15 02:14:20;;;;;;;29.38;17.08;;;10.20;99.90;;;;;;5095350;28;20062;-81
2023/05/15 02:16:45;;;;;;;27.83;18.17;;;10.20;99.90;;;;;;5094390;28;20047;-81
2023/05/15 02:19:11;;;;;;;30.50;18.17;;;10.20;99.90;;;;;;5095365;28;20047;-81
2023/05/15 02:21:37;;;;;;;29.15;18.00;;;10.20;99.90;;;;;;5095172;28;20079;-81
2023/05/15 02:24:02;;;;;;;28.33;17.77;;;10.30;99.90;;;;;;5095307;28;20036;-81
2023/05/15 02:26:34;;;;;;;29.80;18.52;;;10.30;99.90;;;;;;5095018;28;20071;-81
2023/05/15 02:29:22;;;;;;;28.88;18.95;;;10.30;99.90;;;;;;5095027;28;20541;-82
2023/05/15 02:32:13;;;;;;;24.05;16.90;;;10.40;99.90;;;;;;5095185;28;20044;-81
2023/05/15 02:34:58;;;;;;;20.75;13.90;;;10.40;99.90;;;;;;5095174;28;20040;-82
2023/05/15 02:37:29;;;;;;;21.75;15.55;;;10.40;99.90;;;;;;5094998;28;20123;-82
2023/05/15 02:39:58;;;;;;;24.77;16.25;;;10.30;99.90;;;;;;5095299;28;20036;-81
2023/05/15 02:42:26;;;;;;;23.33;16.00;;;10.30;99.90;;;;;;5094975;28;20391;-81
2023/05/15 02:44:54;;;;;;;20.90;14.68;;;10.40;99.90;;;;;;5094774;28;20377;-81
2023/05/15 02:47:22;;;;;;;22.67;15.57;;;10.40;99.90;;;;;;5094948;28;20040;-81
2023/05/15 02:49:48;;;;;;;19.27;14.25;;;10.50;99.90;;;;;;5094612;28;20056;-81
2023/05/15 02:52:14;;;;;;;21.27;15.20;;;10.50;99.90;;;;;;5094789;28;20400;-81
2023/05/15 02:54:40;;;;;;;18.52;12.70;;;10.50;99.90;;;;;;5094745;28;20040;-80
2023/05/15 02:57:06;;;;;;;17.42;13.43;;;10.60;99.90;;;;;;5094444;28;20048;-80
2023/05/15 02:59:33;;;;;;;13.45;11.23;;;10.60;99.90;;;;;;5094683;28;20097;-80
2023/05/15 03:01:59;;;;;;;15.43;11.27;;;10.60;99.90;;;;;;5094473;28;20048;-80
2023/05/15 03:04:24;;;;;;;13.02;10.90;;;10.60;99.90;;;;;;5094487;28;20059;-80
2023/05/15 03:06:50;;;;;;;15.38;11.20;;;10.60;99.90;;;;;;5094543;28;20043;-80
2023/05/15 03:09:16;;;;;;;14.02;11.43;;;10.70;99.90;;;;;;5094329;28;20472;-80
2023/05/15 03:11:42;;;;;;;15.40;11.55;;;10.60;99.90;;;;;;5094246;28;20044;-80
2023/05/15 03:14:08;;;;;;;16.15;11.38;;;10.60;99.90;;;;;;5094218;28;20085;-80
2023/05/15 03:16:35;;;;;;;14.98;10.93;;;10.70;99.90;;;;;;5094194;28;20059;-81
2023/05/15 03:19:01;;;;;;;15.10;12.27;;;10.80;99.90;;;;;;5094248;28;20044;-81
2023/05/15 03:21:27;;;;;;;13.88;10.60;;;10.70;99.90;;;;;;5094225;28;20123;-81
2023/05/15 03:23:53;;;;;;;14.70;11.70;;;10.70;99.90;;;;;;5094160;28;20384;-81
2023/05/15 03:26:18;;;;;;;13.27;11.02;;;10.70;99.90;;;;;;5093988;28;20059;-82
2023/05/15 03:28:44;;;;;;;17.83;12.73;;;10.70;99.90;;;;;;5093579;28;20048;-82
2023/05/15 03:31:09;;;;;;;16.75;12.30;;;10.70;99.90;;;;;;5092520;28;20040;-82
2023/05/15 03:33:36;;;;;;;14.43;12.10;;;10.60;99.90;;;;;;5093622;28;20048;-82
2023/05/15 03:36:02;;;;;;;14.45;10.45;;;10.60;99.90;;;;;;5093209;28;20293;-81
2023/05/15 03:38:28;;;;;;;17.63;10.68;;;10.60;99.90;;;;;;5092590;28;20430;-82
2023/05/15 03:40:53;;;;;;;17.60;12.82;;;10.50;99.90;;;;;;5093874;28;20040;-82
2023/05/15 03:43:19;;;;;;;18.55;14.23;;;10.50;99.90;;;;;;5093680;28;20387;-81
2023/05/15 03:45:44;;;;;;;18.67;13.23;;;10.50;99.90;;;;;;5093631;28;20044;-81
2023/05/15 03:48:10;;;;;;;16.98;12.80;;;10.60;99.90;;;;;;5093794;28;20044;-82
2023/05/15 03:50:36;;;;;;;13.35;10.70;;;10.60;99.90;;;;;;5093692;28;20056;-82
2023/05/15 03:53:01;;;;;;;17.38;11.93;;;10.60;99.90;;;;;;5093437;28;20032;-82
2023/05/15 03:55:27;;;;;;;16.67;12.15;;;10.60;99.90;;;;;;5093694;28;20107;-82
2023/05/15 03:57:53;;;;;;;17.10;11.95;;;10.60;99.90;;;;;;5093626;28;20044;-82
2023/05/15 04:00:19;;;;;;;15.85;11.35;;;10.60;99.90;;;;;;5093693;28;20072;-82
2023/05/15 04:02:44;;;;;;;16.80;10.45;;;10.70;99.90;;;;;;5093556;28;20067;-82
2023/05/15 04:05:10;;;;;;;12.95;9.27;;;10.70;99.90;;;;;;5093535;28;20127;-82
2023/05/15 04:07:36;;;;;;;14.90;10.40;;;10.70;99.90;;;;;;5093311;28;20047;-82
2023/05/15 04:10:03;;;;;;;15.50;10.60;;;10.80;99.90;;;;;;5093314;28;20047;-82
2023/05/15 04:12:31;;;;;;;14.73;9.07;;;10.70;99.90;;;;;;5093382;28;20083;-82
2023/05/15 04:15:12;;;;;;;14.57;10.50;;;10.80;99.90;;;;;;5093361;28;20529;-82
2023/05/15 04:17:38;;;;;;;13.48;8.60;;;10.70;99.90;;;;;;5093344;28;20074;-81
2023/05/15 04:20:05;;;;;;;13.05;8.98;;;10.70;99.90;;;;;;5093240;28;20080;-81
2023/05/15 04:22:30;;;;;;;13.07;8.93;;;10.70;99.90;;;;;;5093480;28;20040;-82
2023/05/15 04:24:56;;;;;;;13.23;9.50;;;10.70;99.90;;;;;;5093436;28;20044;-81
2023/05/15 04:27:22;;;;;;;13.50;9.05;;;10.80;99.90;;;;;;5093043;28;20145;-81
2023/05/15 04:29:48;;;;;;;11.27;9.25;;;10.80;99.90;;;;;;5093179;28;20127;-81
2023/05/15 04:32:13;;;;;;;16.67;10.93;;;10.80;99.90;;;;;;5093258;28;20032;-82
2023/05/15 04:34:39;;;;;;;13.27;10.48;;;10.70;99.90;;;;;;5093107;28;20055;-82
2023/05/15 04:37:05;;;;;;;14.05;9.07;;;10.70;99.90;;;;;;5093311;28;20044;-82
2023/05/15 04:39:31;;;;;;;14.05;11.10;;;10.70;99.90;;;;;;5093156;28;20123;-82
2023/05/15 04:41:57;;;;;;;14.60;10.00;;;10.70;99.90;;;;;;5095873;28;20434;-82
2023/05/15 04:44:22;;;;;;;13.77;10.15;;;10.70;99.90;;;;;;5097300;28;20518;-82
2023/05/15 04:46:48;;;;;;;14.77;11.57;;;10.80;99.90;;;;;;5096996;28;20040;-82
2023/05/15 04:49:14;;;;;;;14.80;10.60;;;10.80;99.90;;;;;;5096961;28;20043;-82
2023/05/15 04:51:40;;;;;;;16.70;10.70;;;10.90;99.90;;;;;;5097227;28;20472;-81
2023/05/15 04:54:06;;;;;;;15.10;11.02;;;10.90;99.90;;;;;;5096921;28;20070;-82
2023/05/15 04:56:32;;;;;;;17.13;12.55;;;11.10;99.90;;;;;;5096814;28;20044;-82
2023/05/15 04:58:58;;;;;;;18.05;14.10;;;11.20;99.90;;;;;;5096789;28;20044;-82
2023/05/15 05:01:24;;;;;;;15.75;9.77;;;11.30;99.90;;;;;;5096687;28;20056;-82
2023/05/15 05:03:50;;;;;;;12.35;8.02;;;11.30;99.90;;;;;;5096843;28;20094;-82
2023/05/15 05:06:16;;;;;;;11.60;8.65;;;11.40;99.90;;;;;;5096376;28;20437;-82
2023/05/15 05:08:41;;;;;;;11.20;9.60;;;11.30;99.90;;;;;;5096746;28;20048;-82
2023/05/15 05:11:07;;;;;;;11.10;8.77;;;11.30;99.90;;;;;;5096545;28;20480;-82
2023/05/15 05:13:33;;;;;;;14.80;9.15;;;11.30;99.90;;;;;;5096442;28;20121;-82
2023/05/15 05:15:58;;;;;;;9.98;8.13;;;11.30;99.90;;;;;;5095225;28;20044;-82
2023/05/15 05:18:24;;;;;;;11.63;7.65;;;11.30;99.90;;;;;;5096294;28;20051;-82
2023/05/15 05:21:01;;;;;;;11.25;8.30;;;11.30;99.90;;;;;;5096202;28;20041;-82
2023/05/15 05:23:27;;;;;;;10.25;7.13;;;11.30;99.90;;;;;;5096305;28;20483;-82
2023/05/15 05:25:53;;;;;;;11.85;8.20;;;11.40;99.90;;;;;;5096064;28;20447;-82
2023/05/15 05:28:18;;;;;;;10.40;8.25;;;11.50;99.90;;;;;;5096225;28;20480;-82
2023/05/15 05:30:45;;;;;;;10.18;7.57;;;11.50;99.90;;;;;;5096343;28;20059;-82
2023/05/15 05:33:11;;;;;;;11.10;8.23;;;11.50;99.90;;;;;;5096032;28;20036;-82
2023/05/15 05:35:36;;;;;;;13.27;10.00;;;11.60;99.90;;;;;;5096279;28;20036;-82
2023/05/15 05:38:02;;;;;;;13.80;8.68;;;11.70;99.90;;;;;;5096236;28;20044;-82
2023/05/15 05:40:28;;;;;;;11.68;8.13;;;11.80;99.90;;;;;;5096232;28;20044;-82
2023/05/15 05:42:54;;;;;;;9.90;6.85;;;11.80;99.90;;;;;;5096077;28;20077;-82
2023/05/15 05:45:20;;;;;;;12.30;7.53;;;11.70;99.90;;;;;;5095909;28;20047;-82
2023/05/15 05:47:45;;;;;;;10.68;7.50;;;11.60;99.90;;;;;;5095859;28;20052;-82
2023/05/15 05:50:11;;;;;;;11.38;8.45;;;11.60;99.90;;;;;;5096019;28;20044;-82
2023/05/15 05:52:36;;;;;;;11.10;7.93;;;11.60;99.90;;;;;;5095797;28;20437;-83
2023/05/15 05:55:02;;;;;;;10.00;7.10;;;11.70;99.90;;;;;;5095795;28;20040;-83
2023/05/15 05:57:28;;;;;;;9.13;6.75;;;11.70;99.90;;;;;;5095638;28;20051;-83
2023/05/15 05:59:54;;;;;;;11.35;7.38;;;11.70;99.90;;;;;;5095823;28;20544;-82
2023/05/15 06:02:19;;;;;;;12.73;9.30;;;11.70;99.90;;;;;;5095781;28;20047;-82
2023/05/15 06:04:45;;;;;;;12.20;8.63;;;11.90;99.90;;;;;;5095468;28;20376;-83
2023/05/15 06:07:11;;;;;;;11.50;8.38;;;12.00;99.90;;;;;;5095456;28;20391;-83
2023/05/15 06:09:37;;;;;;;12.48;7.80;;;12.00;99.90;;;;;;5094185;28;20060;-83
2023/05/15 06:12:07;;;;;;;11.43;7.22;;;12.10;99.90;;;;;;5095309;28;20052;-82
2023/05/15 06:14:32;;;;;;;9.02;7.45;;;12.00;99.90;;;;;;5095195;28;20040;-82
2023/05/15 06:16:59;;;;;;;11.80;6.65;;;12.10;99.90;;;;;;5095475;28;20047;-82
2023/05/15 06:19:25;;;;;;;11.05;8.40;;;12.00;99.90;;;;;;5095205;28;20442;-82
2023/05/15 06:21:51;;;;;;;9.27;7.45;;;12.00;99.90;;;;;;5095717;28;20036;-82
2023/05/15 06:24:17;;;;;;;9.75;7.10;;;12.10;99.90;;;;;;5095137;28;20502;-82
2023/05/15 06:26:43;;;;;;;9.68;6.95;;;12.20;99.90;;;;;;5094946;28;20048;-82
2023/05/15 06:29:08;;;;;;;8.85;6.63;;;12.20;99.90;;;;;;5093623;28;20099;-82
2023/05/15 06:31:34;;;;;;;10.43;7.90;;;12.20;99.90;;;;;;5094958;28;20055;-82
2023/05/15 06:34:00;;;;;;;12.55;7.72;;;12.10;99.90;;;;;;5094963;28;20123;-82
2023/05/15 06:36:26;;;;;;;13.25;7.82;;;12.20;99.90;;;;;;5095026;28;20207;-82
2023/05/15 06:38:51;;;;;;;11.00;8.18;;;12.40;99.90;;;;;;5093679;28;20125;-82
2023/05/15 06:41:17;;;;;;;9.68;7.68;;;12.50;99.90;;;;;;5094674;28;20036;-82
2023/05/15 06:43:42;;;;;;;11.38;8.35;;;12.70;99.90;;;;;;5094891;28;20070;-82
2023/05/15 06:46:08;;;;;;;10.35;8.10;;;12.80;99.90;;;;;;5094867;28;20036;-82
2023/05/15 06:48:37;;;;;;;10.10;7.70;;;12.80;99.90;;;;;;5094523;28;20399;-82
2023/05/15 06:51:03;;;;;;;11.60;7.88;;;13.00;99.90;;;;;;5094551;28;20054;-82
2023/05/15 06:53:29;;;;;;;11.27;7.63;;;12.90;99.90;;;;;;5093279;28;20044;-81
2023/05/15 06:55:55;;;;;;;11.50;8.50;;;13.20;99.90;;;;;;5093362;28;20121;-82
2023/05/15 06:58:20;;;;;;;8.77;6.68;;;13.20;99.90;;;;;;5094590;28;20128;-82
2023/05/15 07:00:46;;;;;;;9.55;6.95;;;13.10;99.90;;;;;;5094364;28;20040;-81
2023/05/15 07:03:13;;;;;;;12.25;7.07;;;13.10;99.90;;;;;;5093995;28;20047;-82
2023/05/15 07:05:39;;;;;;;9.95;7.70;;;13.10;99.90;;;;;;5094345;28;20048;-81
2023/05/15 07:08:04;;;;;;;8.15;7.25;;;12.90;99.90;;;;;;5094530;28;20039;-81
2023/05/15 07:10:30;;;;;;;10.50;7.75;;;13.00;99.90;;;;;;5094204;28;20040;-80
2023/05/15 07:12:56;;;;;;;10.27;7.43;;;13.00;99.90;;;;;;5092911;28;20074;-79
2023/05/15 07:15:21;;;;;;;10.38;7.15;;;13.00;99.90;;;;;;5094406;28;20101;-80
2023/05/15 07:17:47;;;;;;;13.05;8.57;;;13.00;99.90;;;;;;5094297;28;20041;-82
2023/05/15 07:20:14;;;;;;;12.65;6.95;;;13.10;99.90;;;;;;5086610;28;20076;-81
2023/05/15 07:22:40;;;;;;;10.57;7.25;;;13.30;99.90;;;;;;5073648;28;20400;-81
2023/05/15 07:25:07;;;;;;;8.35;7.40;;;13.30;99.90;;;;;;5073895;28;20044;-83
2023/05/15 07:27:35;;;;;;;11.20;7.45;;;13.20;99.90;;;;;;5073473;28;20052;-77
2023/05/15 07:30:02;;;;;;;8.80;6.63;;;13.30;99.90;;;;;;5073347;28;20136;-81
2023/05/15 07:32:29;;;;;;;9.65;6.60;;;13.50;99.90;;;;;;5073429;28;20052;-80
2023/05/15 07:34:55;;;;;;;12.13;7.15;;;13.70;99.90;;;;;;5073295;28;20057;-80
2023/05/15 07:37:22;;;;;;;12.60;8.60;;;13.80;99.90;;;;;;5072495;28;20475;-80
2023/05/15 07:39:47;;;;;;;9.95;7.18;;;13.90;99.90;;;;;;5073357;28;20655;-80
2023/05/15 07:42:13;;;;;;;11.80;7.22;;;14.00;99.90;;;;;;5073264;28;20052;-81
2023/05/15 07:44:39;;;;;;;8.63;6.75;;;13.80;99.90;;;;;;5073405;28;20044;-80
2023/05/15 07:47:04;;;;;;;9.57;6.55;;;13.80;99.90;;;;;;5073585;28;20072;-80
2023/05/15 07:49:30;;;;;;;7.38;5.88;;;13.80;99.90;;;;;;5073261;28;20110;-80
2023/05/15 07:51:56;;;;;;;8.70;6.97;;;13.80;99.90;;;;;;5073150;28;20054;-80
2023/05/15 07:54:22;;;;;;;7.70;6.22;;;13.70;99.90;;;;;;5073308;28;20383;-80
2023/05/15 07:56:47;;;;;;;11.25;6.88;;;13.70;99.90;;;;;;5073303;28;20033;-80
2023/05/15 07:59:14;;;;;;;8.43;7.10;;;13.70;99.90;;;;;;5073195;28;20441;-81
2023/05/15 08:01:39;;;;;;;10.13;7.30;;;13.60;99.90;;;;;;5073201;28;20127;-81
2023/05/15 08:04:07;;;;;;;9.05;7.20;;;13.80;99.90;;;;;;5073149;28;20128;-84
2023/05/15 08:06:33;;;;;;;9.88;6.32;;;13.80;99.90;;;;;;5073151;28;20056;-78
2023/05/15 08:09:00;;;;;;;11.55;7.43;;;13.80;99.90;;;;;;5073120;28;20089;-80
2023/05/15 08:11:25;;;;;;;8.93;7.15;;;13.80;99.90;;;;;;5072740;28;20499;-81
2023/05/15 08:13:51;;;;;;;8.43;7.15;;;14.00;99.90;;;;;;5073180;28;20098;-81
2023/05/15 08:16:17;;;;;;;7.75;6.47;;;14.00;99.90;;;;;;5075972;28;20052;-82
2023/05/15 08:18:43;;;;;;;8.27;6.65;;;14.20;99.90;;;;;;5077171;28;20052;-81
2023/05/15 08:21:10;;;;;;;9.10;6.18;;;14.20;99.90;;;;;;5091427;28;20101;-82
2023/05/15 08:23:36;;;;;;;9.48;6.55;;;14.30;99.90;;;;;;5094802;28;20054;-81
2023/05/15 08:26:01;;;;;;;9.63;6.85;;;14.30;99.90;;;;;;5094457;28;20066;-81
2023/05/15 08:28:33;;;;;;;10.50;7.20;;;14.40;99.90;;;;;;5094635;28;20131;-81
2023/05/15 08:30:59;;;;;;;10.40;6.80;;;14.40;99.90;;;;;;5094545;28;20036;-80
2023/05/15 08:33:24;;;;;;;8.60;6.50;;;14.70;99.90;;;;;;5094827;28;20050;-81
2023/05/15 08:35:50;;;;;;;9.23;7.30;;;15.00;99.90;;;;;;5094872;28;20086;-79
2023/05/15 08:38:16;;;;;;;8.95;7.25;;;14.90;99.90;;;;;;5096740;28;20047;-79
2023/05/15 08:40:46;;;;;;;8.57;7.10;;;14.80;99.90;;;;;;5095431;28;20036;-81
2023/05/15 08:43:14;;;;;;;8.23;7.20;;;14.90;99.90;;;;;;5094659;28;20044;-82
2023/05/15 08:45:40;;;;;;;11.18;6.38;;;15.00;99.90;;;;;;5094484;28;20043;-82
2023/05/15 08:48:19;;;;;;;7.82;6.68;;;15.00;99.90;;;;;;5094144;28;20044;-81
2023/05/15 08:50:45;;;;;;;8.68;6.88;;;15.20;99.90;;;;;;5091442;28;20089;-82
2023/05/15 08:53:12;;;;;;;8.88;6.07;;;15.40;99.90;;;;;;5094292;28;20044;-81
2023/05/15 08:55:38;;;;;;;7.65;6.60;;;15.40;99.90;;;;;;5094056;28;20048;-81
2023/05/15 08:58:04;;;;;;;7.20;5.90;;;15.60;99.90;;;;;;5091190;28;20044;-81
2023/05/15 09:00:30;;;;;;;8.15;5.95;;;15.80;99.90;;;;;;5094028;28;20492;-81
2023/05/15 09:02:59;;;;;;;6.60;5.90;;;15.70;99.90;;;;;;5094000;28;20040;-80
2023/05/15 09:05:25;;;;;;;7.47;5.57;;;15.70;99.90;;;;;;5091545;28;20040;-81
2023/05/15 09:07:53;;;;;;;6.88;5.40;;;15.90;99.90;;;;;;5093891;28;20568;-81
2023/05/15 09:10:19;;;;;;;6.40;5.45;;;16.00;99.90;;;;;;5093990;28;20086;-81
2023/05/15 09:12:45;;;;;;;8.93;5.60;;;16.00;99.90;;;;;;5092525;28;20490;-81
2023/05/15 09:15:14;;;;;;;7.57;5.63;;;15.60;99.90;;;;;;5093864;28;20044;-80
2023/05/15 09:17:41;;;;;;;6.68;5.00;;;15.60;99.90;;;;;;5093918;28;20075;-81
2023/05/15 09:20:27;;;;;;;9.00;5.95;;;15.80;99.90;;;;;;5093784;28;20044;-81
2023/05/15 09:22:54;;;;;;;7.43;5.53;;;15.70;99.90;;;;;;5092386;28;20107;-81
2023/05/15 09:25:38;;;;;;;6.93;5.88;;;15.60;99.90;;;;;;5093558;28;20056;-81
2023/05/15 09:28:07;;;;;;;7.32;6.10;;;15.70;99.90;;;;;;5115150;27;20056;-81
2023/05/15 09:30:33;;;;;;;9.15;5.63;;;15.50;99.90;;;;;;5093486;28;20495;-81
2023/05/15 09:33:02;;;;;;;7.15;5.65;;;15.30;99.90;;;;;;5093645;28;20060;-81
2023/05/15 09:35:33;;;;;;;8.98;5.80;;;15.30;99.90;;;;;;5092149;28;20122;-81
2023/05/15 09:38:00;;;;;;;7.30;5.90;;;15.40;99.90;;;;;;5093628;28;20071;-80
2023/05/15 09:40:31;;;;;;;6.53;5.72;;;15.70;99.90;;;;;;5093501;28;20040;-80
2023/05/15 09:42:57;;;;;;;8.20;6.32;;;16.00;99.90;;;;;;5093342;28;20499;-81
2023/05/15 09:45:28;;;;;;;10.82;6.55;;;16.00;99.90;;;;;;5093540;28;20039;-81
2023/05/15 09:47:56;;;;;;;7.80;6.03;;;16.20;99.90;;;;;;5093241;28;20820;-81
2023/05/15 09:50:23;;;;;;;7.80;5.88;;;16.20;99.90;;;;;;5092993;28;20097;-82
2023/05/15 09:52:50;;;;;;;7.55;6.30;;;16.30;99.90;;;;;;5093303;28;20107;-82
2023/05/15 09:55:18;;;;;;;7.75;6.38;;;16.30;99.90;;;;;;5093134;28;20078;-82
2023/05/15 09:57:45;;;;;;;6.90;6.20;;;16.20;99.90;;;;;;5092894;28;20071;-82
2023/05/15 10:00:11;;;;;;;6.72;6.03;;;16.20;99.90;;;;;;5091618;28;20419;-82
2023/05/15 10:02:40;;;;;;;6.72;5.70;;;16.20;99.90;;;;;;5091578;28;20048;-81
2023/05/15 10:05:06;;;;;;;7.95;6.35;;;16.20;99.90;;;;;;5090439;28;20040;-82
2023/05/15 10:07:35;;;;;;;6.95;5.88;;;16.10;99.90;;;;;;5091866;28;20059;-81
2023/05/15 10:10:03;;;;;;;7.57;6.07;;;16.10;99.90;;;;;;5087331;28;20115;-83
2023/05/15 10:12:30;;;;;;;9.57;6.60;;;16.20;99.90;;;;;;5084271;28;20043;-83
2023/05/15 10:14:58;;;;;;;8.15;6.95;;;16.30;99.90;;;;;;5089036;28;20514;-82
2023/05/15 10:17:24;;;;;;;8.13;6.35;;;16.20;99.90;;;;;;5049888;28;20082;-81
2023/05/15 10:19:51;;;;;;;8.85;6.45;;;16.20;99.90;;;;;;5075068;28;20041;-80
2023/05/15 10:22:22;;;;;;;7.22;6.50;;;15.90;99.90;;;;;;5053410;28;21268;-80
2023/05/15 10:24:56;;;;;;;11.15;7.25;;;15.70;99.90;;;;;;5068080;28;20095;-80
2023/05/15 10:27:22;;;;;;;9.50;7.35;;;15.70;99.90;;;;;;5077995;28;20052;-80
2023/05/15 10:29:58;;;;;;;9.40;7.20;;;15.70;99.90;;;;;;5073233;28;20110;-80
2023/05/15 10:32:25;;;;;;;8.88;7.50;;;15.80;99.90;;;;;;5073615;28;20060;-80
2023/05/15 10:34:52;;;;;;;9.48;7.50;;;15.90;99.90;;;;;;5073304;28;20040;-80
2023/05/15 10:37:19;;;;;;;10.02;8.20;;;16.00;99.90;;;;;;5073707;28;20056;-80
2023/05/15 10:39:46;;;;;;;9.50;7.60;;;15.80;99.90;;;;;;5073960;28;20520;-80
2023/05/15 10:42:12;;;;;;;9.57;7.00;;;15.60;99.90;;;;;;5074256;28;20127;-79
2023/05/15 10:44:38;;;;;;;9.23;7.15;;;15.40;99.90;;;;;;5094224;28;20051;-80
2023/05/15 10:47:05;;;;;;;8.48;7.32;;;15.50;99.90;;;;;;5094595;28;20036;-80
2023/05/15 10:49:30;;;;;;;8.43;7.45;;;15.50;99.90;;;;;;5093153;28;20040;-81
2023/05/15 10:51:59;;;;;;;12.52;7.90;;;15.50;99.90;;;;;;5094546;28;20043;-80
2023/05/15 10:54:25;;;;;;;7.93;6.57;;;15.40;99.90;;;;;;5094551;28;20149;-80
2023/05/15 10:56:54;;;;;;;8.30;6.60;;;15.20;99.90;;;;;;5094589;28;20103;-80
2023/05/15 10:59:20;;;;;;;8.98;7.90;;;15.20;99.90;;;;;;5094599;28;20126;-79
2023/05/15 11:01:47;;;;;;;9.18;7.28;;;15.10;99.90;;;;;;5094533;28;20078;-80
2023/05/15 11:04:17;;;;;;;7.35;6.47;;;15.20;99.90;;;;;;5094436;28;20090;-80
2023/05/15 11:06:50;;;;;;;7.47;6.70;;;15.40;99.90;;;;;;5094173;28;20040;-80
2023/05/15 11:09:21;;;;;;;;;;;15.50;99.90;;;;;;5094234;28;20483;-80
2023/05/15 11:11:50;;;;;;;8.00;5.90;;;15.50;99.90;;;;;;5092957;28;19928;-80
2023/05/15 11:14:16;;;;;;;7.28;5.88;;;15.60;99.90;;;;;;5093088;28;20428;-80
2023/05/15 11:16:54;;;;;;;8.10;5.47;;;15.50;99.90;;;;;;5091340;28;20087;-80
2023/05/15 11:19:30;;;;;;;6.47;5.10;;;15.70;99.90;;;;;;5093616;28;20521;-79
2023/05/15 11:22:14;;;;;;;7.25;5.18;;;15.70;99.90;;;;;;5093015;28;20044;-80
2023/05/15 11:25:02;;;;;;;9.23;5.65;;;15.60;99.90;;;;;;5093729;28;20137;-80
2023/05/15 11:27:38;;;;;;;9.98;5.38;;;15.60;99.90;;;;;;5119419;27;20050;-80
2023/05/15 11:30:23;;;;;;;6.53;5.65;;;15.40;99.90;;;;;;5092640;28;20048;-80
2023/05/15 11:32:50;;;;;;;6.13;4.88;;;15.60;99.90;;;;;;5092887;28;20460;-81
2023/05/15 11:35:28;;;;;;;5.68;4.68;;;15.50;99.90;;;;;;5092639;28;20044;-81
2023/05/15 11:38:02;;;;;;;10.77;5.07;;;15.50;99.90;;;;;;5092654;28;20487;-80
2023/05/15 11:40:42;;;;;;;7.35;5.20;;;15.50;99.90;;;;;;5092431;28;20079;-81
2023/05/15 11:43:16;;;;;;;8.25;5.63;;;15.30;99.90;;;;;;5093957;28;20101;-81
2023/05/15 11:45:44;;;;;;;6.88;5.53;;;15.20;99.90;;;;;;5093606;28;20071;-82
2023/05/15 11:48:13;;;;;;;7.72;4.97;;;15.00;99.90;;;;;;5087169;28;20047;-80
2023/05/15 11:50:40;;;;;;;7.40;5.20;;;15.00;99.90;;;;;;5074214;28;20446;-80
2023/05/15 11:53:07;;;;;;;7.70;5.97;;;14.90;99.90;;;;;;5072406;28;20132;-80
2023/05/15 11:55:35;;;;;;;7.45;5.72;;;15.00;99.90;;;;;;5073496;28;20063;-81
2023/05/15 11:58:02;;;;;;;6.45;5.32;;;15.30;99.90;;;;;;5072026;28;20045;-81
2023/05/15 12:00:28;;;;;;;6.57;5.00;;;15.40;99.90;;;;;;5071874;28;20037;-80
2023/05/15 12:02:54;;;;;;;6.00;4.63;;;15.40;99.90;;;;;;5071933;28;20055;-81
2023/05/15 12:05:21;;;;;;;6.10;4.82;;;15.30;99.90;;;;;;5091460;28;20040;-81
2023/05/15 12:07:46;;;;;;;6.20;4.72;;;15.40;99.90;;;;;;5084105;28;20045;-81
2023/05/15 12:10:13;;;;;;;5.70;4.60;;;15.60;99.90;;;;;;5071679;28;20048;-83
2023/05/15 12:12:43;;;;;;;6.60;4.53;;;15.40;99.90;;;;;;5073078;28;20124;-83
2023/05/15 12:15:13;;;;;;;4.25;3.85;;;15.60;99.90;;;;;;5082296;28;20040;-80
2023/05/15 12:17:40;;;;;;;5.88;4.95;;;15.60;99.90;;;;;;5088701;28;20048;-80
2023/05/15 12:20:09;;;;;;;6.18;4.82;;;15.60;99.90;;;;;;5089529;28;20048;-80
2023/05/15 12:22:38;;;;;;;6.03;4.95;;;15.60;99.90;;;;;;5086689;28;20055;-80
2023/05/15 12:25:06;;;;;;;6.32;4.40;;;15.40;99.90;;;;;;5087394;28;20052;-80
2023/05/15 12:27:35;;;;;;;6.10;4.45;;;15.40;99.90;;;;;;5082652;28;20506;-80
2023/05/15 12:30:02;;;;;;;9.23;4.68;;;15.60;99.90;;;;;;5087312;28;20074;-81
2023/05/15 12:32:31;;;;;;;6.13;4.40;;;15.50;99.90;;;;;;5091627;28;20070;-80
2023/05/15 12:34:57;;;;;;;6.55;4.60;;;15.40;99.90;;;;;;5093180;28;20040;-80
2023/05/15 12:37:23;;;;;;;5.70;4.68;;;15.30;99.90;;;;;;5093331;28;20055;-80
2023/05/15 12:40:10;;;;;;;5.55;4.47;;;15.30;99.90;;;;;;5093248;28;20040;-80